Time;durP1;ratioP1;P1;durP2;ratioP2;P2;SDS_P1;SDS_P2;PMS_P1;PMS_P2;Temp;Humidity;BMP_temperature;BMP_pressure;BME280_temperature;BME280_humidity;BME280_pressure;Samples;Min_cycle;Max_cycle;Signal;HPM_P1;HPM_P2
2022/10/14 00:01:16;;;;;;;11.82;6.25;;;12.20;99.90;;;;;;6199826;22;20014;-92
2022/10/14 00:03:43;;;;;;;9.98;5.57;;;12.10;99.90;;;;;;6224670;22;20022;-91
2022/10/14 00:06:14;;;;;;;11.00;5.47;;;12.10;99.90;;;;;;6224960;22;20453;-93
2022/10/14 00:08:41;;;;;;;12.85;6.18;;;12.00;99.90;;;;;;6224486;22;20457;-93
2022/10/14 00:11:10;;;;;;;11.25;5.63;;;12.00;99.90;;;;;;6224464;22;20012;-93
2022/10/14 00:13:36;;;;;;;10.60;5.00;;;12.00;99.90;;;;;;6224228;22;20020;-92
2022/10/14 00:16:04;;;;;;;8.48;4.55;;;11.90;99.90;;;;;;6200143;22;20073;-93
2022/10/14 00:18:30;;;;;;;9.77;4.95;;;11.90;99.90;;;;;;6224778;22;20047;-93
2022/10/14 00:21:01;;;;;;;6.68;3.10;;;11.90;99.90;;;;;;6225003;22;20004;-94
2022/10/14 00:23:27;;;;;;;4.75;2.08;;;11.80;99.90;;;;;;6223730;22;20019;-93
2022/10/14 00:31:03;;;;;;;7.78;3.60;;;11.80;99.90;;;;;;6276251;22;20023;-93
2022/10/14 01:01:04;;;;;;;;;;;;;;;;;;;;;
2022/10/14 01:04:53;;;;;;;8.38;4.32;;;11.70;99.90;;;;;;6220810;23;20016;-93
2022/10/14 01:07:20;;;;;;;9.07;4.63;;;11.60;99.90;;;;;;6209587;23;20016;-92
2022/10/14 01:10:08;;;;;;;7.82;4.30;;;11.60;99.90;;;;;;6196527;23;20082;-91
2022/10/14 01:13:13;;;;;;;7.03;3.70;;;11.60;99.90;;;;;;6195796;23;20016;-93
2022/10/14 01:16:02;;;;;;;7.68;4.30;;;11.50;99.90;;;;;;6196434;23;20091;-91
2022/10/14 01:18:52;;;;;;;9.30;4.70;;;11.50;99.90;;;;;;6196214;23;20106;-93
2022/10/14 01:21:51;;;;;;;;;;;;;;;;;;;;;
2022/10/14 01:24:53;;;;;;;8.57;3.75;;;11.40;99.90;;;;;;6221296;23;20074;-91
2022/10/14 01:27:53;;;;;;;9.10;4.30;;;11.40;99.90;;;;;;6196053;23;20020;-91
2022/10/14 01:30:21;;;;;;;8.18;3.75;;;11.30;99.90;;;;;;6195912;23;20048;-92
2022/10/14 01:33:10;;;;;;;7.38;3.83;;;11.30;99.90;;;;;;6196484;23;20012;-91
2022/10/14 01:39:13;;;;;;;7.20;3.60;;;11.20;99.90;;;;;;6302027;22;20019;-91
2022/10/14 01:44:17;;;;;;;7.28;3.72;;;11.10;99.90;;;;;;6247640;22;20020;-91
2022/10/14 01:46:50;;;;;;;7.88;4.05;;;11.00;99.90;;;;;;6195839;23;20496;-91
2022/10/14 01:49:27;;;;;;;7.57;4.03;;;10.90;99.90;;;;;;6195645;23;20099;-91
2022/10/14 01:52:29;;;;;;;8.70;3.95;;;10.90;99.90;;;;;;6195611;23;20052;-90
2022/10/14 01:55:17;;;;;;;6.53;3.53;;;11.00;99.90;;;;;;6176183;23;20020;-92
2022/10/14 01:57:44;;;;;;;7.97;3.53;;;10.90;99.90;;;;;;6171110;23;20103;-91
2022/10/14 02:00:11;;;;;;;7.72;4.03;;;10.90;99.90;;;;;;6171465;23;20061;-92
2022/10/14 02:02:37;;;;;;;6.90;3.83;;;10.90;99.90;;;;;;6195429;23;20396;-91
2022/10/14 02:05:15;;;;;;;7.40;4.30;;;10.90;99.90;;;;;;6195503;23;20019;-91
2022/10/14 02:07:55;;;;;;;7.80;4.40;;;10.90;99.90;;;;;;6195530;23;20012;-91
2022/10/14 02:10:28;;;;;;;6.35;3.47;;;10.90;99.90;;;;;;6195568;23;20026;-91
2022/10/14 02:12:53;;;;;;;8.55;4.43;;;10.90;99.90;;;;;;6195330;23;20016;-91
2022/10/14 02:15:42;;;;;;;11.87;4.33;;;11.00;99.90;;;;;;6196614;23;20070;-90
2022/10/14 02:18:29;;;;;;;7.20;4.03;;;11.00;99.90;;;;;;6195984;23;20048;-93
2022/10/14 02:21:17;;;;;;;7.18;4.00;;;11.00;99.90;;;;;;6195571;23;20020;-94
2022/10/14 02:23:52;;;;;;;7.88;4.18;;;11.00;99.90;;;;;;6123708;23;20039;-95
2022/10/14 02:26:19;;;;;;;8.50;3.85;;;11.00;99.90;;;;;;6195009;23;20041;-95
2022/10/14 02:28:46;;;;;;;8.38;4.43;;;11.00;99.90;;;;;;6195356;23;20438;-93
2022/10/14 02:31:15;;;;;;;7.68;4.15;;;11.00;99.90;;;;;;6170659;23;20012;-94
2022/10/14 02:33:44;;;;;;;7.78;3.90;;;11.00;99.90;;;;;;6195115;23;20043;-94
2022/10/14 02:36:13;;;;;;;7.47;4.05;;;11.00;99.90;;;;;;6195185;23;20066;-93
2022/10/14 02:38:40;;;;;;;5.95;3.10;;;11.00;99.90;;;;;;6195272;23;20016;-93
2022/10/14 02:41:11;;;;;;;7.85;3.92;;;11.00;99.90;;;;;;6170642;23;20009;-93
2022/10/14 02:43:37;;;;;;;6.60;3.17;;;11.00;99.90;;;;;;6194875;23;20024;-94
2022/10/14 02:46:04;;;;;;;5.40;3.10;;;11.00;99.90;;;;;;6195324;23;20055;-94
2022/10/14 02:48:30;;;;;;;7.38;3.60;;;11.00;99.90;;;;;;6195130;23;20100;-93
2022/10/14 02:50:56;;;;;;;6.65;3.20;;;11.00;99.90;;;;;;6195159;23;20020;-94
2022/10/14 02:53:21;;;;;;;6.27;3.20;;;11.00;99.90;;;;;;6194790;23;20016;-93
2022/10/14 02:55:47;;;;;;;6.80;3.40;;;11.00;99.90;;;;;;6195142;23;20016;-94
2022/10/14 02:58:13;;;;;;;5.93;3.17;;;11.00;99.90;;;;;;6194821;23;20020;-93
2022/10/14 03:00:39;;;;;;;6.07;2.93;;;11.00;99.90;;;;;;6194933;23;20012;-92
2022/10/14 03:03:04;;;;;;;5.80;3.00;;;11.00;99.90;;;;;;6194997;23;20255;-92
2022/10/14 03:05:30;;;;;;;5.50;3.20;;;11.00;99.90;;;;;;6170020;23;20070;-93
2022/10/14 03:07:56;;;;;;;6.20;2.97;;;11.00;99.90;;;;;;6194922;23;20337;-92
2022/10/14 03:10:21;;;;;;;6.37;3.17;;;11.00;99.90;;;;;;6195118;23;20009;-92
2022/10/14 03:12:47;;;;;;;5.77;2.60;;;11.00;99.90;;;;;;6194675;23;20051;-91
2022/10/14 03:15:13;;;;;;;5.53;2.67;;;11.00;99.90;;;;;;6195183;23;20009;-92
2022/10/14 03:17:39;;;;;;;5.18;2.55;;;11.00;99.90;;;;;;6194954;23;20020;-92
2022/10/14 03:20:30;;;;;;;5.63;2.50;;;11.00;99.90;;;;;;6195242;23;20051;-92
2022/10/14 03:22:59;;;;;;;5.40;2.53;;;10.90;99.90;;;;;;6174613;23;20111;-92
2022/10/14 03:25:25;;;;;;;5.67;3.00;;;10.90;99.90;;;;;;6170241;23;20044;-94
2022/10/14 03:27:51;;;;;;;5.33;3.07;;;10.90;99.90;;;;;;6195176;23;20096;-93
2022/10/14 03:30:16;;;;;;;5.27;2.40;;;10.90;99.90;;;;;;6195230;23;20089;-93
2022/10/14 03:32:42;;;;;;;5.17;2.60;;;10.90;99.90;;;;;;6194593;23;20728;-93
2022/10/14 03:35:09;;;;;;;5.77;2.80;;;10.90;99.90;;;;;;6194953;23;20138;-91
2022/10/14 03:37:35;;;;;;;5.32;2.40;;;10.90;99.90;;;;;;6146023;23;20019;-91
2022/10/14 03:40:00;;;;;;;5.25;2.00;;;10.80;99.90;;;;;;6194645;23;20020;-92
2022/10/14 03:42:26;;;;;;;5.07;1.88;;;10.80;99.90;;;;;;6195677;23;20024;-92
2022/10/14 03:44:52;;;;;;;5.13;1.80;;;10.80;99.90;;;;;;6210551;23;20016;-90
2022/10/14 03:47:18;;;;;;;4.43;2.20;;;10.80;99.90;;;;;;6196857;23;20020;-92
2022/10/14 03:49:43;;;;;;;4.53;2.27;;;10.70;99.90;;;;;;6169952;23;20341;-91
2022/10/14 03:52:09;;;;;;;3.67;1.65;;;10.70;99.90;;;;;;6194759;23;20016;-91
2022/10/14 03:54:35;;;;;;;4.30;2.10;;;10.60;99.90;;;;;;6194755;23;20349;-93
2022/10/14 03:57:01;;;;;;;5.53;1.70;;;10.60;99.90;;;;;;6194269;23;20020;-92
2022/10/14 03:59:26;;;;;;;4.67;2.03;;;10.60;99.90;;;;;;6169744;23;20012;-91
2022/10/14 04:01:52;;;;;;;4.60;2.00;;;10.60;99.90;;;;;;6194426;23;20476;-91
2022/10/14 04:04:18;;;;;;;5.27;2.10;;;10.60;99.90;;;;;;6169656;23;20464;-92
2022/10/14 04:06:44;;;;;;;4.50;1.70;;;10.60;99.90;;;;;;6194440;23;20095;-91
2022/10/14 04:09:09;;;;;;;4.60;1.90;;;10.60;99.90;;;;;;6194654;23;20417;-92
2022/10/14 04:11:54;;;;;;;;;;;;;;;;;;;;;
2022/10/14 04:14:20;;;;;;;5.38;2.13;;;10.70;99.90;;;;;;6219445;23;20022;-93
2022/10/14 04:16:45;;;;;;;5.20;2.20;;;10.70;99.90;;;;;;6195008;23;20048;-93
2022/10/14 04:19:11;;;;;;;4.83;2.23;;;10.70;99.90;;;;;;6212963;23;20044;-90
2022/10/14 04:21:37;;;;;;;4.47;2.07;;;10.70;99.90;;;;;;6211181;23;20023;-93
2022/10/14 04:24:02;;;;;;;4.23;2.00;;;10.70;99.90;;;;;;6197635;23;20052;-93
2022/10/14 04:26:54;;;;;;;5.77;2.60;;;10.70;99.90;;;;;;6196594;23;20091;-93
2022/10/14 04:29:19;;;;;;;6.75;2.47;;;10.70;99.90;;;;;;6220750;23;20404;-92
2022/10/14 04:31:45;;;;;;;3.87;1.70;;;10.80;99.90;;;;;;6196349;23;20062;-93
2022/10/14 04:34:11;;;;;;;5.20;2.23;;;10.80;99.90;;;;;;6171829;23;20286;-94
2022/10/14 04:36:37;;;;;;;4.55;1.92;;;10.80;99.90;;;;;;6196413;23;20024;-92
2022/10/14 04:39:03;;;;;;;5.00;2.33;;;10.80;99.90;;;;;;6196236;23;20008;-92
2022/10/14 04:41:29;;;;;;;4.72;2.00;;;10.70;99.90;;;;;;6196575;23;20039;-94
2022/10/14 04:43:59;;;;;;;4.97;2.57;;;10.70;99.90;;;;;;6195951;23;20441;-95
2022/10/14 04:46:25;;;;;;;5.70;2.10;;;10.80;99.90;;;;;;6171771;23;20020;-93
2022/10/14 04:48:51;;;;;;;5.33;2.30;;;10.80;99.90;;;;;;6196359;23;20441;-95
2022/10/14 04:51:17;;;;;;;6.20;3.27;;;10.80;99.90;;;;;;6196286;23;20024;-93
2022/10/14 04:53:42;;;;;;;5.53;2.43;;;10.80;99.90;;;;;;6196377;23;20054;-94
2022/10/14 04:56:08;;;;;;;6.27;2.67;;;10.90;99.90;;;;;;6196618;23;20446;-94
2022/10/14 04:58:34;;;;;;;7.50;3.33;;;10.90;99.90;;;;;;6196579;23;20070;-93
2022/10/14 05:00:59;;;;;;;7.43;3.50;;;10.90;99.90;;;;;;6196408;23;20326;-90
2022/10/14 05:03:26;;;;;;;7.43;3.17;;;10.90;99.90;;;;;;6171509;23;20090;-92
2022/10/14 05:05:51;;;;;;;9.05;3.67;;;11.00;99.90;;;;;;6196013;23;20088;-92
2022/10/14 05:08:17;;;;;;;7.10;3.03;;;11.00;99.90;;;;;;6171380;23;20015;-93
2022/10/14 05:10:43;;;;;;;6.97;3.22;;;11.00;99.90;;;;;;6196052;23;20468;-91
2022/10/14 05:13:09;;;;;;;7.10;2.87;;;11.00;99.90;;;;;;6195891;23;20027;-92
2022/10/14 05:15:35;;;;;;;7.32;3.17;;;11.00;99.90;;;;;;6196080;23;20022;-91
2022/10/14 05:21:57;;;;;;;7.20;2.70;;;11.10;99.90;;;;;;6088776;23;20293;-90
2022/10/14 05:24:22;;;;;;;6.23;2.67;;;11.10;99.90;;;;;;6195308;23;20024;-89
2022/10/14 05:26:48;;;;;;;5.57;2.30;;;11.10;99.90;;;;;;6170834;23;20039;-89
2022/10/14 05:45:10;;;;;;;5.30;2.03;;;11.20;99.90;;;;;;6268692;22;20023;-92
2022/10/14 05:47:59;;;;;;;;;;;11.10;99.90;;;;;;6226460;22;20028;-92
2022/10/14 05:50:25;;;;;;;4.65;1.70;;;11.10;99.90;;;;;;6225709;22;19915;-94
2022/10/14 05:52:51;;;;;;;5.23;1.57;;;11.10;99.90;;;;;;6201009;22;20054;-93
2022/10/14 05:55:16;;;;;;;5.67;2.27;;;11.10;99.90;;;;;;6200981;22;20015;-91
2022/10/14 05:57:43;;;;;;;4.80;1.83;;;11.10;99.90;;;;;;6226024;22;20016;-91
2022/10/14 06:00:09;;;;;;;4.80;1.70;;;11.10;99.90;;;;;;6200766;22;20511;-92
2022/10/14 06:02:35;;;;;;;5.10;2.13;;;11.10;99.90;;;;;;6176274;22;20012;-91
2022/10/14 06:05:01;;;;;;;4.87;1.80;;;11.10;99.90;;;;;;6200463;22;20337;-90
2022/10/14 06:07:27;;;;;;;6.40;2.20;;;11.00;99.90;;;;;;6176084;22;20528;-91
2022/10/14 06:09:52;;;;;;;5.87;2.27;;;11.10;99.90;;;;;;6225693;22;20051;-91
2022/10/14 06:12:18;;;;;;;5.60;2.27;;;11.00;99.90;;;;;;6225508;22;20449;-92
2022/10/14 06:14:44;;;;;;;6.90;2.60;;;11.00;99.90;;;;;;6200637;22;20041;-92
2022/10/14 06:17:10;;;;;;;7.17;2.47;;;11.00;99.90;;;;;;6200449;22;20090;-91
2022/10/14 06:19:36;;;;;;;7.23;2.53;;;11.00;99.90;;;;;;6200941;22;20250;-92
2022/10/14 06:22:37;;;;;;;5.93;2.30;;;11.10;99.90;;;;;;6202543;22;20068;-93
2022/10/14 06:25:03;;;;;;;6.22;2.20;;;11.10;99.90;;;;;;6243817;22;20019;-93
2022/10/14 06:27:28;;;;;;;9.07;3.65;;;11.10;99.90;;;;;;6205730;22;20012;-92
2022/10/14 06:29:54;;;;;;;7.03;2.63;;;11.10;99.90;;;;;;6176556;22;20050;-92
2022/10/14 06:32:20;;;;;;;7.10;2.50;;;11.10;99.90;;;;;;6175464;22;20444;-91
2022/10/14 06:34:45;;;;;;;9.27;3.00;;;11.10;99.90;;;;;;6225252;22;20022;-91
2022/10/14 06:37:11;;;;;;;9.43;3.00;;;11.10;99.90;;;;;;6225731;22;20043;-92
2022/10/14 06:39:37;;;;;;;7.07;2.67;;;11.10;99.90;;;;;;6225731;22;20069;-91
2022/10/14 06:42:03;;;;;;;7.87;3.07;;;11.10;99.90;;;;;;6200843;22;20038;-92
2022/10/14 06:44:29;;;;;;;8.67;3.00;;;11.20;99.90;;;;;;6225325;22;20065;-91
2022/10/14 06:46:54;;;;;;;10.07;3.60;;;11.20;99.90;;;;;;6225567;22;20262;-91
2022/10/14 06:49:33;;;;;;;8.17;3.27;;;11.20;99.90;;;;;;6225783;22;20683;-92
2022/10/14 06:52:02;;;;;;;7.75;3.28;;;11.20;99.90;;;;;;6225711;22;20023;-94
2022/10/14 06:54:57;;;;;;;8.40;3.03;;;11.20;99.90;;;;;;6250699;22;20381;-91
2022/10/14 06:57:39;;;;;;;8.93;3.30;;;11.20;99.90;;;;;;6253269;22;20019;-95
2022/10/14 07:00:06;;;;;;;9.35;3.55;;;11.20;99.90;;;;;;6225201;22;20012;-91
2022/10/14 07:02:31;;;;;;;9.18;3.25;;;11.20;99.90;;;;;;6227914;22;20047;-95
2022/10/14 07:04:57;;;;;;;11.73;3.23;;;11.20;99.90;;;;;;6225573;22;20069;-96
2022/10/14 07:20:24;;;;;;;11.68;3.97;;;11.30;99.90;;;;;;6307411;22;20025;-88
2022/10/14 07:22:55;;;;;;;12.23;4.27;;;11.30;99.90;;;;;;6228483;22;20015;-91
2022/10/14 07:26:31;;;;;;;9.05;3.42;;;11.40;99.90;;;;;;6254643;22;20046;-89
2022/10/14 07:28:57;;;;;;;12.60;4.38;;;11.40;99.90;;;;;;6219090;22;20506;-91
2022/10/14 07:31:23;;;;;;;10.10;3.85;;;11.40;99.90;;;;;;6204946;22;20026;-94
2022/10/14 07:33:49;;;;;;;8.67;3.47;;;11.40;99.90;;;;;;6254714;22;20494;-91
2022/10/14 07:36:16;;;;;;;9.88;3.35;;;11.40;99.90;;;;;;6255184;22;20352;-94
2022/10/14 07:38:43;;;;;;;12.70;4.30;;;11.40;99.90;;;;;;6230161;22;20015;-96
2022/10/14 07:41:17;;;;;;;9.65;3.97;;;11.40;99.90;;;;;;6280784;22;20326;-96
2022/10/14 07:43:52;;;;;;;8.75;3.42;;;11.40;99.90;;;;;;6255157;22;20420;-93
2022/10/14 07:46:58;;;;;;;10.35;3.00;;;11.40;99.90;;;;;;6254474;22;20088;-92
2022/10/14 07:49:22;;;;;;;9.57;3.58;;;11.40;99.90;;;;;;6259521;22;20033;-96
2022/10/14 07:51:48;;;;;;;11.85;3.67;;;11.50;99.90;;;;;;6228855;22;20019;-93
2022/10/14 07:54:21;;;;;;;12.77;4.03;;;11.50;99.90;;;;;;6257076;22;20011;-96
2022/10/14 07:56:50;;;;;;;11.20;3.20;;;11.50;99.90;;;;;;6257071;22;20011;-92
2022/10/14 07:59:19;;;;;;;12.35;3.78;;;11.50;99.90;;;;;;6256479;22;20072;-92
2022/10/14 08:01:50;;;;;;;13.98;4.30;;;11.50;99.90;;;;;;6258236;22;20030;-90
2022/10/14 08:04:16;;;;;;;11.20;4.07;;;11.50;99.90;;;;;;6256954;22;20019;-95
2022/10/14 08:06:49;;;;;;;13.35;3.95;;;11.50;99.90;;;;;;6282289;22;20011;-91
2022/10/14 08:09:17;;;;;;;12.85;3.90;;;11.60;99.90;;;;;;6256956;22;20432;-90
2022/10/14 08:11:43;;;;;;;12.80;3.60;;;11.60;99.90;;;;;;6256458;22;20026;-90
2022/10/14 08:14:09;;;;;;;12.98;4.53;;;11.60;99.90;;;;;;6282653;22;20102;-90
2022/10/14 08:16:41;;;;;;;18.10;5.28;;;11.60;99.90;;;;;;6256727;22;20030;-92
2022/10/14 08:19:10;;;;;;;14.70;5.07;;;11.60;99.90;;;;;;6252346;22;20019;-91
2022/10/14 08:27:40;;;;;;;17.40;4.97;;;11.60;99.90;;;;;;6305343;22;20023;-89
2022/10/14 08:30:07;;;;;;;13.43;4.47;;;11.70;99.90;;;;;;6275386;22;20043;-90
2022/10/14 08:32:33;;;;;;;13.95;5.15;;;11.70;99.90;;;;;;6258427;22;20340;-95
2022/10/14 08:46:25;;;;;;;15.27;5.07;;;11.70;99.90;;;;;;6278449;22;20023;-90
2022/10/14 08:49:01;;;;;;;17.67;7.03;;;11.80;99.90;;;;;;6226498;22;20400;-89
2022/10/14 08:51:29;;;;;;;16.30;5.95;;;11.80;99.90;;;;;;6226064;22;20400;-90
2022/10/14 08:54:05;;;;;;;16.80;5.85;;;11.80;99.90;;;;;;6225587;22;20019;-93
2022/10/14 08:56:33;;;;;;;15.35;4.78;;;11.80;99.90;;;;;;6251166;22;20050;-89
2022/10/14 08:59:06;;;;;;;16.55;6.47;;;11.90;99.90;;;;;;6226035;22;20020;-90
2022/10/14 09:02:25;;;;;;;17.08;6.70;;;11.90;99.90;;;;;;6234746;22;20027;-88
2022/10/14 09:04:50;;;;;;;17.80;6.00;;;11.90;99.90;;;;;;6211901;22;20016;-92
2022/10/14 09:09:52;;;;;;;18.08;6.22;;;12.00;99.90;;;;;;6256539;22;20028;-89
2022/10/14 09:12:24;;;;;;;17.15;6.90;;;12.00;99.90;;;;;;6226384;22;20019;-93
2022/10/14 09:15:29;;;;;;;17.73;6.55;;;12.10;99.90;;;;;;6226712;22;20015;-91
2022/10/14 09:18:41;;;;;;;14.05;5.72;;;12.20;99.90;;;;;;6101015;23;20072;-91
2022/10/14 09:21:41;;;;;;;12.98;5.43;;;12.20;99.90;;;;;;6075577;23;20018;-90
2022/10/14 09:24:47;;;;;;;;;;;;;;;;;;;;;
2022/10/14 09:27:26;;;;;;;17.42;7.03;;;12.20;99.90;;;;;;6146738;23;20081;-91
2022/10/14 09:30:21;;;;;;;14.85;6.38;;;12.20;99.90;;;;;;6098361;23;20014;-93
2022/10/14 09:32:53;;;;;;;20.13;7.90;;;12.30;99.90;;;;;;6170184;22;20012;-93
2022/10/14 09:35:31;;;;;;;17.45;6.50;;;12.30;99.90;;;;;;6199561;22;20058;-91
2022/10/14 09:38:35;;;;;;;16.10;6.25;;;12.40;99.90;;;;;;6226170;22;20043;-91
2022/10/14 09:41:11;;;;;;;15.27;6.43;;;12.40;99.90;;;;;;6251069;22;20020;-91
2022/10/14 09:44:31;;;;;;;18.27;7.10;;;12.40;99.90;;;;;;6226368;22;20051;-91
2022/10/14 09:47:20;;;;;;;15.45;6.70;;;12.40;99.90;;;;;;6144469;22;20044;-91
2022/10/14 09:49:47;;;;;;;17.02;7.18;;;12.40;99.90;;;;;;6226028;22;20015;-91
2022/10/14 09:52:20;;;;;;;;;;;12.40;99.90;;;;;;6226108;22;20051;-91
2022/10/14 09:54:55;;;;;;;17.27;6.72;;;12.40;99.90;;;;;;6226275;22;20379;-91
2022/10/14 09:57:23;;;;;;;19.33;7.18;;;12.50;99.90;;;;;;6225882;22;20149;-92
2022/10/14 10:00:02;;;;;;;17.67;7.13;;;12.50;99.90;;;;;;6201240;22;20015;-92
2022/10/14 10:02:40;;;;;;;15.80;6.10;;;12.50;99.90;;;;;;6225956;22;20046;-94
2022/10/14 10:05:38;;;;;;;16.67;6.63;;;12.50;99.90;;;;;;6227385;22;20027;-91
2022/10/14 10:08:13;;;;;;;16.80;6.22;;;12.50;99.90;;;;;;6227050;22;20034;-95
2022/10/14 10:10:39;;;;;;;15.73;7.03;;;12.50;99.90;;;;;;6211182;23;20481;-91
2022/10/14 10:13:30;;;;;;;18.08;7.47;;;12.50;99.90;;;;;;6146267;23;20023;-91
2022/10/14 10:16:02;;;;;;;15.20;6.22;;;12.50;99.90;;;;;;6195229;23;20048;-95
2022/10/14 10:18:28;;;;;;;17.60;6.88;;;12.60;99.90;;;;;;6194845;23;20020;-91
2022/10/14 10:21:24;;;;;;;16.27;6.75;;;12.60;99.90;;;;;;6195863;23;20031;-90
2022/10/14 10:23:55;;;;;;;18.42;6.70;;;12.60;99.90;;;;;;6195630;23;20058;-92
2022/10/14 10:26:28;;;;;;;20.17;8.13;;;12.60;99.90;;;;;;6195674;23;20016;-92
2022/10/14 10:28:58;;;;;;;19.38;7.40;;;12.70;99.90;;;;;;6197497;23;20322;-93
2022/10/14 10:31:35;;;;;;;17.02;6.57;;;12.60;99.90;;;;;;6199293;23;20083;-91
2022/10/14 10:34:38;;;;;;;19.33;7.03;;;12.70;99.90;;;;;;6195733;23;20091;-94
2022/10/14 10:37:21;;;;;;;15.07;6.72;;;12.70;99.90;;;;;;6195883;23;20055;-92
2022/10/14 10:40:10;;;;;;;15.77;6.72;;;12.70;99.90;;;;;;6196100;23;20016;-92
2022/10/14 10:42:51;;;;;;;14.02;5.88;;;12.80;99.90;;;;;;6170551;23;20020;-92
2022/10/14 10:45:35;;;;;;;14.95;5.97;;;12.80;99.90;;;;;;6196298;23;20012;-92
2022/10/14 10:48:23;;;;;;;14.05;5.97;;;12.80;99.90;;;;;;6196356;23;20016;-95
2022/10/14 10:53:40;;;;;;;11.27;5.50;;;12.90;99.90;;;;;;6249012;22;19915;-92
2022/10/14 10:56:13;;;;;;;12.48;5.25;;;12.90;99.90;;;;;;6224430;22;20115;-91
2022/10/14 10:59:21;;;;;;;14.35;5.57;;;12.90;99.90;;;;;;6225310;22;20012;-92
2022/10/14 11:02:02;;;;;;;14.00;5.22;;;13.00;99.90;;;;;;6198952;22;20073;-92
2022/10/14 11:14:53;;;;;;;12.50;4.72;;;13.20;99.90;;;;;;6250080;22;20047;-93
2022/10/14 11:18:11;;;;;;;13.68;5.30;;;13.20;99.90;;;;;;6220571;22;20018;-92
2022/10/14 11:24:38;;;;;;;13.38;5.22;;;13.20;99.90;;;;;;6224073;22;20055;-92
2022/10/14 11:27:36;;;;;;;13.57;5.13;;;13.20;99.90;;;;;;6224123;22;20043;-92
2022/10/14 11:30:10;;;;;;;12.15;4.85;;;13.20;99.90;;;;;;6179230;22;20023;-92
2022/10/14 11:32:53;;;;;;;12.73;4.78;;;13.20;99.90;;;;;;6225391;22;20020;-93
2022/10/14 11:35:56;;;;;;;11.73;4.80;;;13.20;99.90;;;;;;6224872;22;20474;-93
2022/10/14 11:38:43;;;;;;;11.55;4.60;;;13.20;99.90;;;;;;6225132;22;20016;-93
2022/10/14 11:41:31;;;;;;;13.80;4.30;;;13.20;99.90;;;;;;6224972;22;20051;-92
2022/10/14 11:44:10;;;;;;;9.43;3.78;;;13.20;99.90;;;;;;6225031;22;20016;-92
2022/10/14 11:46:41;;;;;;;7.75;3.60;;;13.20;99.90;;;;;;6224784;22;20023;-90
2022/10/14 11:49:25;;;;;;;7.38;2.97;;;13.30;99.90;;;;;;6224933;22;20020;-92
2022/10/14 11:51:57;;;;;;;7.57;3.03;;;13.30;99.90;;;;;;6224545;22;20055;-94
2022/10/14 11:54:31;;;;;;;10.52;3.97;;;13.30;99.90;;;;;;6224752;22;20046;-92
2022/10/14 11:57:20;;;;;;;12.95;3.10;;;13.30;99.90;;;;;;6225119;22;20090;-91
2022/10/14 11:59:59;;;;;;;10.48;3.80;;;13.30;99.90;;;;;;6224608;22;20139;-92
2022/10/14 12:03:02;;;;;;;8.77;3.50;;;13.40;99.90;;;;;;6224898;22;20225;-91
2022/10/14 12:05:58;;;;;;;8.70;3.30;;;13.40;99.90;;;;;;6224755;22;20043;-91
2022/10/14 12:08:46;;;;;;;10.52;3.70;;;13.40;99.90;;;;;;6224744;22;20016;-90
2022/10/14 12:11:24;;;;;;;9.27;3.45;;;13.30;99.90;;;;;;6224499;22;20055;-91
2022/10/14 12:13:56;;;;;;;8.60;3.22;;;13.30;99.90;;;;;;6224648;22;20063;-91
2022/10/14 12:16:23;;;;;;;8.95;3.28;;;13.30;99.90;;;;;;6224798;22;20034;-91
2022/10/14 12:18:54;;;;;;;9.63;3.42;;;13.40;99.90;;;;;;6224813;22;20015;-91
2022/10/14 12:21:31;;;;;;;8.32;3.30;;;13.40;99.90;;;;;;6224529;22;20448;-91
2022/10/14 12:24:03;;;;;;;;;;;13.40;99.90;;;;;;6225508;22;20012;-92
2022/10/14 12:26:45;;;;;;;8.77;3.15;;;13.40;99.90;;;;;;6225062;22;19915;-90
2022/10/14 12:29:36;;;;;;;8.25;3.40;;;13.50;99.90;;;;;;6224880;22;20022;-91
2022/10/14 12:32:02;;;;;;;8.10;3.25;;;13.50;99.90;;;;;;6223790;22;20023;-91
2022/10/14 12:34:38;;;;;;;8.60;3.40;;;13.50;99.90;;;;;;6224771;22;20019;-91
2022/10/14 12:37:22;;;;;;;8.50;3.08;;;13.50;99.90;;;;;;6224712;22;20043;-91
2022/10/14 12:39:53;;;;;;;9.25;3.53;;;13.40;99.90;;;;;;6225181;22;20026;-91
2022/10/14 12:42:20;;;;;;;8.77;3.42;;;13.40;99.90;;;;;;6226465;22;20437;-90
2022/10/14 12:44:52;;;;;;;9.35;3.65;;;13.40;99.90;;;;;;6226587;22;20103;-92
2022/10/14 12:47:33;;;;;;;8.60;3.40;;;13.40;99.90;;;;;;6226312;22;20043;-90
2022/10/14 12:50:29;;;;;;;9.48;3.53;;;13.40;99.90;;;;;;6226207;22;20018;-90
2022/10/14 12:52:59;;;;;;;11.63;4.30;;;13.40;99.90;;;;;;6226192;22;20106;-92
2022/10/14 12:55:31;;;;;;;10.00;4.05;;;13.40;99.90;;;;;;6226014;22;20016;-92
2022/10/14 12:58:00;;;;;;;8.18;3.45;;;13.40;99.90;;;;;;6226586;22;20016;-93
2022/10/14 13:00:30;;;;;;;10.23;3.97;;;13.40;99.90;;;;;;6226337;22;20072;-92
2022/10/14 13:03:01;;;;;;;11.20;4.85;;;13.50;99.90;;;;;;6224117;22;20023;-91
2022/10/14 13:05:39;;;;;;;10.55;4.07;;;13.50;99.90;;;;;;6224705;22;20098;-92
2022/10/14 13:08:14;;;;;;;10.68;4.25;;;13.50;99.90;;;;;;6225260;22;20023;-92
2022/10/14 13:10:42;;;;;;;11.27;4.25;;;13.40;99.90;;;;;;6226982;22;20388;-90
2022/10/14 13:13:51;;;;;;;10.00;4.47;;;13.40;99.90;;;;;;6242854;22;20023;-90
2022/10/14 13:17:11;;;;;;;10.02;4.55;;;13.40;99.90;;;;;;6228138;22;20029;-92
2022/10/14 13:19:39;;;;;;;11.02;4.40;;;13.40;99.90;;;;;;6106112;23;20018;-88
2022/10/14 13:24:51;;;;;;;12.90;5.25;;;13.40;99.90;;;;;;6277169;22;20020;-92
2022/10/14 13:27:45;;;;;;;11.00;4.50;;;13.40;99.90;;;;;;6199105;22;20107;-92
2022/10/14 13:30:19;;;;;;;9.48;4.35;;;13.40;99.90;;;;;;6225573;22;20022;-91
2022/10/14 13:33:33;;;;;;;9.75;3.95;;;13.40;99.90;;;;;;6224281;22;20026;-90
2022/10/14 13:36:37;;;;;;;10.45;4.97;;;13.40;99.90;;;;;;6130066;23;20349;-88
2022/10/14 13:39:03;;;;;;;13.68;5.97;;;13.40;99.90;;;;;;6105572;23;20025;-90
2022/10/14 13:41:33;;;;;;;13.65;5.38;;;13.40;99.90;;;;;;6240926;22;20020;-90
2022/10/14 13:44:00;;;;;;;11.68;4.53;;;13.40;99.90;;;;;;6201315;22;20456;-89
2022/10/14 13:46:52;;;;;;;15.02;5.13;;;13.40;99.90;;;;;;6229491;22;20015;-88
2022/10/14 13:49:29;;;;;;;14.55;5.95;;;13.50;99.90;;;;;;6233004;22;20012;-90
2022/10/14 13:51:54;;;;;;;;;;;13.50;99.90;;;;;;6225878;22;20508;-90
2022/10/14 13:54:31;;;;;;;15.48;6.47;;;13.50;99.90;;;;;;6225742;22;19946;-89
2022/10/14 13:56:58;;;;;;;19.57;6.80;;;13.50;99.90;;;;;;6225506;22;20020;-91
2022/10/14 13:59:24;;;;;;;19.30;6.97;;;13.50;99.90;;;;;;6225452;22;20065;-91
2022/10/14 14:01:53;;;;;;;17.17;8.27;;;13.50;99.90;;;;;;6225634;22;20043;-92
2022/10/14 14:04:48;;;;;;;17.83;7.30;;;13.50;99.90;;;;;;6225697;22;20012;-90
2022/10/14 14:07:20;;;;;;;20.08;7.88;;;13.50;99.90;;;;;;6247761;22;20015;-91
2022/10/14 14:09:51;;;;;;;18.13;7.32;;;13.50;99.90;;;;;;6225888;22;20078;-90
2022/10/14 14:12:19;;;;;;;17.17;6.90;;;13.60;99.90;;;;;;6200911;22;20099;-90
2022/10/14 14:14:47;;;;;;;19.33;8.20;;;13.60;99.90;;;;;;6225357;22;20012;-90
2022/10/14 14:17:32;;;;;;;20.58;8.93;;;13.70;99.90;;;;;;6226511;22;20019;-92
2022/10/14 14:19:58;;;;;;;17.55;7.13;;;13.60;99.90;;;;;;6200396;22;20015;-93
2022/10/14 14:22:29;;;;;;;21.73;8.82;;;13.70;99.90;;;;;;6225659;22;20023;-90
2022/10/14 14:25:30;;;;;;;20.60;8.32;;;13.70;99.90;;;;;;6225360;22;20090;-90
2022/10/14 14:28:00;;;;;;;17.40;7.25;;;13.70;99.90;;;;;;6225694;22;20091;-91
2022/10/14 14:30:31;;;;;;;17.38;7.68;;;13.70;99.90;;;;;;6224581;22;20456;-92
2022/10/14 14:33:00;;;;;;;18.20;7.78;;;13.80;99.90;;;;;;6225237;22;20496;-90
2022/10/14 14:35:29;;;;;;;19.75;8.75;;;13.80;99.90;;;;;;6225750;22;20018;-91
2022/10/14 14:37:55;;;;;;;20.13;8.77;;;13.90;99.90;;;;;;6200221;22;20103;-90
2022/10/14 14:40:29;;;;;;;21.40;8.90;;;13.90;99.90;;;;;;6225534;22;20047;-90
2022/10/14 14:43:06;;;;;;;20.02;9.05;;;13.90;99.90;;;;;;6225174;22;20020;-91
2022/10/14 14:45:45;;;;;;;16.02;6.90;;;14.00;99.90;;;;;;6226382;22;20060;-90
2022/10/14 14:48:53;;;;;;;18.98;7.45;;;14.00;99.90;;;;;;6225015;22;20453;-91
2022/10/14 14:51:40;;;;;;;15.63;6.63;;;14.00;99.90;;;;;;6253130;22;20019;-91
2022/10/14 14:54:13;;;;;;;15.50;6.55;;;14.00;99.90;;;;;;6224984;22;20445;-91
2022/10/14 14:56:44;;;;;;;14.27;6.40;;;14.00;99.90;;;;;;6225419;22;20016;-91
2022/10/14 14:59:21;;;;;;;16.83;7.07;;;14.00;99.90;;;;;;6225467;22;20047;-91
2022/10/14 15:01:47;;;;;;;16.40;7.45;;;14.10;99.90;;;;;;6224978;22;20023;-92
2022/10/14 15:04:22;;;;;;;14.98;7.05;;;14.10;99.90;;;;;;6200311;22;20012;-91
2022/10/14 15:06:59;;;;;;;13.50;5.70;;;14.10;99.90;;;;;;6223462;22;20030;-91
2022/10/14 15:09:33;;;;;;;;;;;14.10;99.90;;;;;;6224029;22;20066;-90
2022/10/14 15:12:01;;;;;;;15.10;5.68;;;14.10;99.90;;;;;;6223553;22;19962;-92
2022/10/14 15:14:48;;;;;;;16.08;6.18;;;14.10;99.90;;;;;;6224760;22;20019;-91
2022/10/14 15:17:32;;;;;;;17.23;6.22;;;14.10;99.90;;;;;;6224456;22;20008;-91
2022/10/14 15:20:04;;;;;;;14.18;5.80;;;14.10;99.90;;;;;;6225090;22;20019;-90